sensor_id;sensor_type;location;lat;lon;timestamp;P1;durP1;ratioP1;P2;durP2;ratioP2
17390;SDS011;8813;54.444;18.446;2023-08-06T00:00:55;1.80;;;1.80;;
17390;SDS011;8813;54.444;18.446;2023-08-06T00:03:22;1.70;;;1.70;;
17390;SDS011;8813;54.444;18.446;2023-08-06T00:05:49;1.83;;;1.83;;
17390;SDS011;8813;54.444;18.446;2023-08-06T00:08:15;2.05;;;2.05;;
17390;SDS011;8813;54.444;18.446;2023-08-06T00:10:42;1.88;;;1.88;;
17390;SDS011;8813;54.444;18.446;2023-08-06T00:13:11;1.60;;;1.60;;
17390;SDS011;8813;54.444;18.446;2023-08-06T00:15:38;1.60;;;1.60;;
17390;SDS011;8813;54.444;18.446;2023-08-06T00:18:04;1.80;;;1.80;;
17390;SDS011;8813;54.444;18.446;2023-08-06T00:20:31;1.83;;;1.83;;
17390;SDS011;8813;54.444;18.446;2023-08-06T00:22:58;1.80;;;1.80;;
17390;SDS011;8813;54.444;18.446;2023-08-06T00:25:25;1.80;;;1.80;;
17390;SDS011;8813;54.444;18.446;2023-08-06T00:27:52;1.67;;;1.67;;
17390;SDS011;8813;54.444;18.446;2023-08-06T00:30:21;1.98;;;1.98;;
17390;SDS011;8813;54.444;18.446;2023-08-06T00:32:47;1.80;;;1.80;;
17390;SDS011;8813;54.444;18.446;2023-08-06T00:35:14;1.80;;;1.80;;
17390;SDS011;8813;54.444;18.446;2023-08-06T00:37:41;2.10;;;2.10;;
17390;SDS011;8813;54.444;18.446;2023-08-06T00:40:08;1.80;;;1.80;;
17390;SDS011;8813;54.444;18.446;2023-08-06T00:42:35;2.00;;;2.00;;
17390;SDS011;8813;54.444;18.446;2023-08-06T00:45:02;1.70;;;1.70;;
17390;SDS011;8813;54.444;18.446;2023-08-06T00:47:31;1.50;;;1.50;;
17390;SDS011;8813;54.444;18.446;2023-08-06T00:49:58;1.80;;;1.80;;
17390;SDS011;8813;54.444;18.446;2023-08-06T00:52:25;1.60;;;1.60;;
17390;SDS011;8813;54.444;18.446;2023-08-06T00:54:52;1.90;;;1.90;;
17390;SDS011;8813;54.444;18.446;2023-08-06T00:57:20;2.05;;;2.05;;
17390;SDS011;8813;54.444;18.446;2023-08-06T00:59:49;1.90;;;1.90;;
17390;SDS011;8813;54.444;18.446;2023-08-06T01:02:15;1.90;;;1.90;;
17390;SDS011;8813;54.444;18.446;2023-08-06T01:04:44;1.70;;;1.70;;
17390;SDS011;8813;54.444;18.446;2023-08-06T01:07:13;1.80;;;1.80;;
17390;SDS011;8813;54.444;18.446;2023-08-06T01:09:48;1.80;;;1.80;;
17390;SDS011;8813;54.444;18.446;2023-08-06T01:12:20;1.90;;;1.90;;
17390;SDS011;8813;54.444;18.446;2023-08-06T01:14:53;1.90;;;1.90;;
17390;SDS011;8813;54.444;18.446;2023-08-06T01:17:25;1.90;;;1.90;;
17390;SDS011;8813;54.444;18.446;2023-08-06T01:19:54;2.00;;;2.00;;
17390;SDS011;8813;54.444;18.446;2023-08-06T01:22:22;2.30;;;2.20;;
17390;SDS011;8813;54.444;18.446;2023-08-06T01:24:49;2.00;;;2.00;;
17390;SDS011;8813;54.444;18.446;2023-08-06T01:27:18;2.25;;;2.25;;
17390;SDS011;8813;54.444;18.446;2023-08-06T01:29:52;1.95;;;1.95;;
17390;SDS011;8813;54.444;18.446;2023-08-06T01:32:22;2.13;;;2.13;;
17390;SDS011;8813;54.444;18.446;2023-08-06T01:34:50;2.10;;;2.10;;
17390;SDS011;8813;54.444;18.446;2023-08-06T01:37:18;1.90;;;1.90;;
17390;SDS011;8813;54.444;18.446;2023-08-06T01:39:46;2.25;;;1.90;;
17390;SDS011;8813;54.444;18.446;2023-08-06T01:42:13;1.73;;;1.73;;
17390;SDS011;8813;54.444;18.446;2023-08-06T01:44:40;1.80;;;1.80;;
17390;SDS011;8813;54.444;18.446;2023-08-06T01:47:07;1.60;;;1.60;;
17390;SDS011;8813;54.444;18.446;2023-08-06T01:49:33;2.10;;;2.00;;
17390;SDS011;8813;54.444;18.446;2023-08-06T01:52:00;2.20;;;2.20;;
17390;SDS011;8813;54.444;18.446;2023-08-06T01:54:27;2.08;;;2.08;;
17390;SDS011;8813;54.444;18.446;2023-08-06T01:56:55;2.20;;;2.20;;
17390;SDS011;8813;54.444;18.446;2023-08-06T01:59:23;2.00;;;2.00;;
17390;SDS011;8813;54.444;18.446;2023-08-06T02:01:50;3.03;;;2.20;;
17390;SDS011;8813;54.444;18.446;2023-08-06T02:04:17;1.70;;;1.70;;
17390;SDS011;8813;54.444;18.446;2023-08-06T02:06:44;1.70;;;1.70;;
17390;SDS011;8813;54.444;18.446;2023-08-06T02:09:11;1.80;;;1.80;;
17390;SDS011;8813;54.444;18.446;2023-08-06T02:11:37;1.98;;;1.98;;
17390;SDS011;8813;54.444;18.446;2023-08-06T02:14:06;1.90;;;1.90;;
17390;SDS011;8813;54.444;18.446;2023-08-06T02:16:32;1.92;;;1.92;;
17390;SDS011;8813;54.444;18.446;2023-08-06T02:18:59;1.80;;;1.80;;
17390;SDS011;8813;54.444;18.446;2023-08-06T02:21:26;1.90;;;1.90;;
17390;SDS011;8813;54.444;18.446;2023-08-06T02:23:53;1.80;;;1.80;;
17390;SDS011;8813;54.444;18.446;2023-08-06T02:26:20;2.00;;;2.00;;
17390;SDS011;8813;54.444;18.446;2023-08-06T02:28:47;2.10;;;2.10;;
17390;SDS011;8813;54.444;18.446;2023-08-06T02:31:15;2.10;;;2.10;;
17390;SDS011;8813;54.444;18.446;2023-08-06T02:33:42;2.10;;;2.10;;
17390;SDS011;8813;54.444;18.446;2023-08-06T02:36:09;1.90;;;1.90;;
17390;SDS011;8813;54.444;18.446;2023-08-06T02:38:35;2.22;;;2.22;;
17390;SDS011;8813;54.444;18.446;2023-08-06T02:41:03;2.10;;;2.10;;
17390;SDS011;8813;54.444;18.446;2023-08-06T02:43:30;2.00;;;2.00;;
17390;SDS011;8813;54.444;18.446;2023-08-06T02:45:57;1.83;;;1.83;;
17390;SDS011;8813;54.444;18.446;2023-08-06T02:48:25;1.60;;;1.60;;
17390;SDS011;8813;54.444;18.446;2023-08-06T02:50:52;1.77;;;1.77;;
17390;SDS011;8813;54.444;18.446;2023-08-06T02:53:19;1.70;;;1.70;;
17390;SDS011;8813;54.444;18.446;2023-08-06T02:55:46;1.70;;;1.70;;
17390;SDS011;8813;54.444;18.446;2023-08-06T02:58:13;2.00;;;2.00;;
17390;SDS011;8813;54.444;18.446;2023-08-06T03:00:40;2.13;;;2.13;;
17390;SDS011;8813;54.444;18.446;2023-08-06T03:03:08;2.28;;;2.28;;
17390;SDS011;8813;54.444;18.446;2023-08-06T03:05:36;2.50;;;2.50;;
17390;SDS011;8813;54.444;18.446;2023-08-06T03:08:03;2.50;;;2.40;;
17390;SDS011;8813;54.444;18.446;2023-08-06T03:10:30;2.33;;;2.33;;
17390;SDS011;8813;54.444;18.446;2023-08-06T03:12:57;2.20;;;2.20;;
17390;SDS011;8813;54.444;18.446;2023-08-06T03:15:24;2.38;;;2.38;;
17390;SDS011;8813;54.444;18.446;2023-08-06T03:17:51;2.60;;;2.60;;
17390;SDS011;8813;54.444;18.446;2023-08-06T03:20:17;2.33;;;2.33;;
17390;SDS011;8813;54.444;18.446;2023-08-06T03:22:46;2.40;;;2.40;;
17390;SDS011;8813;54.444;18.446;2023-08-06T03:25:13;2.30;;;2.30;;
17390;SDS011;8813;54.444;18.446;2023-08-06T03:27:40;2.97;;;2.88;;
17390;SDS011;8813;54.444;18.446;2023-08-06T03:30:07;2.13;;;2.13;;
17390;SDS011;8813;54.444;18.446;2023-08-06T03:32:34;2.13;;;2.13;;
17390;SDS011;8813;54.444;18.446;2023-08-06T03:35:01;2.45;;;2.35;;
17390;SDS011;8813;54.444;18.446;2023-08-06T03:37:28;2.42;;;2.42;;
17390;SDS011;8813;54.444;18.446;2023-08-06T03:39:56;2.60;;;2.60;;
17390;SDS011;8813;54.444;18.446;2023-08-06T03:42:23;2.50;;;2.50;;
17390;SDS011;8813;54.444;18.446;2023-08-06T03:44:50;2.58;;;2.40;;
17390;SDS011;8813;54.444;18.446;2023-08-06T03:47:17;2.30;;;2.30;;
17390;SDS011;8813;54.444;18.446;2023-08-06T03:49:44;2.55;;;2.45;;
17390;SDS011;8813;54.444;18.446;2023-08-06T03:52:11;2.05;;;2.05;;
17390;SDS011;8813;54.444;18.446;2023-08-06T03:54:38;2.10;;;2.10;;
17390;SDS011;8813;54.444;18.446;2023-08-06T03:57:06;2.10;;;2.10;;
17390;SDS011;8813;54.444;18.446;2023-08-06T03:59:33;2.10;;;2.10;;
17390;SDS011;8813;54.444;18.446;2023-08-06T04:02:00;2.05;;;2.05;;
17390;SDS011;8813;54.444;18.446;2023-08-06T04:04:27;1.88;;;1.88;;
17390;SDS011;8813;54.444;18.446;2023-08-06T04:06:53;2.22;;;2.22;;
17390;SDS011;8813;54.444;18.446;2023-08-06T04:09:20;3.30;;;3.10;;
17390;SDS011;8813;54.444;18.446;2023-08-06T04:11:47;2.20;;;2.20;;
17390;SDS011;8813;54.444;18.446;2023-08-06T04:14:15;2.60;;;2.50;;
17390;SDS011;8813;54.444;18.446;2023-08-06T04:16:42;2.10;;;2.10;;
17390;SDS011;8813;54.444;18.446;2023-08-06T04:19:09;2.30;;;2.30;;
17390;SDS011;8813;54.444;18.446;2023-08-06T04:21:36;2.65;;;2.55;;
17390;SDS011;8813;54.444;18.446;2023-08-06T04:24:03;2.30;;;2.30;;
17390;SDS011;8813;54.444;18.446;2023-08-06T04:26:30;6.47;;;3.13;;
17390;SDS011;8813;54.444;18.446;2023-08-06T04:28:57;2.45;;;2.35;;
17390;SDS011;8813;54.444;18.446;2023-08-06T04:31:25;2.30;;;2.30;;
17390;SDS011;8813;54.444;18.446;2023-08-06T04:33:52;2.60;;;2.50;;
17390;SDS011;8813;54.444;18.446;2023-08-06T04:36:19;3.38;;;3.28;;
17390;SDS011;8813;54.444;18.446;2023-08-06T04:38:46;2.10;;;2.10;;
17390;SDS011;8813;54.444;18.446;2023-08-06T04:41:13;2.40;;;2.30;;
17390;SDS011;8813;54.444;18.446;2023-08-06T04:43:40;2.10;;;2.10;;
17390;SDS011;8813;54.444;18.446;2023-08-06T04:46:06;2.00;;;2.00;;
17390;SDS011;8813;54.444;18.446;2023-08-06T04:48:35;2.10;;;2.10;;
17390;SDS011;8813;54.444;18.446;2023-08-06T04:51:02;2.63;;;2.53;;
17390;SDS011;8813;54.444;18.446;2023-08-06T04:53:28;2.00;;;2.00;;
17390;SDS011;8813;54.444;18.446;2023-08-06T04:55:55;2.20;;;2.20;;
17390;SDS011;8813;54.444;18.446;2023-08-06T04:58:22;3.47;;;3.28;;
17390;SDS011;8813;54.444;18.446;2023-08-06T05:00:49;2.30;;;2.30;;
17390;SDS011;8813;54.444;18.446;2023-08-06T05:03:16;2.17;;;2.17;;
17390;SDS011;8813;54.444;18.446;2023-08-06T05:05:45;1.80;;;1.80;;
17390;SDS011;8813;54.444;18.446;2023-08-06T05:08:13;1.95;;;1.95;;
17390;SDS011;8813;54.444;18.446;2023-08-06T05:10:42;1.80;;;1.80;;
17390;SDS011;8813;54.444;18.446;2023-08-06T05:13:09;2.33;;;2.33;;
17390;SDS011;8813;54.444;18.446;2023-08-06T05:15:36;2.10;;;2.10;;
17390;SDS011;8813;54.444;18.446;2023-08-06T05:18:04;2.30;;;2.30;;
17390;SDS011;8813;54.444;18.446;2023-08-06T05:20:33;4.90;;;2.53;;
17390;SDS011;8813;54.444;18.446;2023-08-06T05:23:04;3.17;;;2.97;;
17390;SDS011;8813;54.444;18.446;2023-08-06T05:25:30;2.67;;;2.67;;
17390;SDS011;8813;54.444;18.446;2023-08-06T05:27:57;2.45;;;2.45;;
17390;SDS011;8813;54.444;18.446;2023-08-06T05:30:25;2.70;;;2.70;;
17390;SDS011;8813;54.444;18.446;2023-08-06T05:32:52;2.70;;;2.70;;
17390;SDS011;8813;54.444;18.446;2023-08-06T05:35:18;2.70;;;2.70;;
17390;SDS011;8813;54.444;18.446;2023-08-06T05:37:45;3.10;;;3.00;;
17390;SDS011;8813;54.444;18.446;2023-08-06T05:40:14;2.72;;;2.72;;
17390;SDS011;8813;54.444;18.446;2023-08-06T05:42:41;2.90;;;2.90;;
17390;SDS011;8813;54.444;18.446;2023-08-06T05:45:08;2.95;;;2.95;;
17390;SDS011;8813;54.444;18.446;2023-08-06T05:47:36;2.50;;;2.50;;
17390;SDS011;8813;54.444;18.446;2023-08-06T05:50:03;2.88;;;2.88;;
17390;SDS011;8813;54.444;18.446;2023-08-06T05:52:30;2.67;;;2.67;;
17390;SDS011;8813;54.444;18.446;2023-08-06T05:54:57;2.70;;;2.60;;
17390;SDS011;8813;54.444;18.446;2023-08-06T05:57:25;2.40;;;2.40;;
17390;SDS011;8813;54.444;18.446;2023-08-06T05:59:52;2.50;;;2.50;;
17390;SDS011;8813;54.444;18.446;2023-08-06T06:02:18;2.70;;;2.60;;
17390;SDS011;8813;54.444;18.446;2023-08-06T06:04:45;2.60;;;2.60;;
17390;SDS011;8813;54.444;18.446;2023-08-06T06:07:14;2.60;;;2.60;;
17390;SDS011;8813;54.444;18.446;2023-08-06T06:09:41;2.88;;;2.70;;
17390;SDS011;8813;54.444;18.446;2023-08-06T06:12:08;2.50;;;2.50;;
17390;SDS011;8813;54.444;18.446;2023-08-06T06:14:36;2.65;;;2.65;;
17390;SDS011;8813;54.444;18.446;2023-08-06T06:17:03;2.58;;;2.58;;
17390;SDS011;8813;54.444;18.446;2023-08-06T06:19:30;2.50;;;2.50;;
17390;SDS011;8813;54.444;18.446;2023-08-06T06:21:57;2.70;;;2.70;;
17390;SDS011;8813;54.444;18.446;2023-08-06T06:24:24;2.60;;;2.60;;
17390;SDS011;8813;54.444;18.446;2023-08-06T06:26:51;2.45;;;2.45;;
17390;SDS011;8813;54.444;18.446;2023-08-06T06:29:18;2.63;;;2.63;;
17390;SDS011;8813;54.444;18.446;2023-08-06T06:31:47;2.78;;;2.78;;
17390;SDS011;8813;54.444;18.446;2023-08-06T06:34:14;2.50;;;2.50;;
17390;SDS011;8813;54.444;18.446;2023-08-06T06:36:41;2.60;;;2.60;;
17390;SDS011;8813;54.444;18.446;2023-08-06T06:39:08;2.50;;;2.50;;
17390;SDS011;8813;54.444;18.446;2023-08-06T06:41:35;2.60;;;2.60;;
17390;SDS011;8813;54.444;18.446;2023-08-06T06:44:01;3.00;;;2.90;;
17390;SDS011;8813;54.444;18.446;2023-08-06T06:46:28;2.97;;;2.97;;
17390;SDS011;8813;54.444;18.446;2023-08-06T06:48:56;3.25;;;3.15;;
17390;SDS011;8813;54.444;18.446;2023-08-06T06:51:23;3.00;;;3.00;;
17390;SDS011;8813;54.444;18.446;2023-08-06T06:53:50;3.40;;;3.30;;
17390;SDS011;8813;54.444;18.446;2023-08-06T06:56:17;3.10;;;3.00;;
17390;SDS011;8813;54.444;18.446;2023-08-06T06:58:44;2.60;;;2.60;;
17390;SDS011;8813;54.444;18.446;2023-08-06T07:01:11;2.85;;;2.85;;
17390;SDS011;8813;54.444;18.446;2023-08-06T07:03:38;2.60;;;2.60;;
17390;SDS011;8813;54.444;18.446;2023-08-06T07:06:07;2.30;;;2.30;;
17390;SDS011;8813;54.444;18.446;2023-08-06T07:08:34;2.40;;;2.40;;
17390;SDS011;8813;54.444;18.446;2023-08-06T07:11:01;2.88;;;2.88;;
17390;SDS011;8813;54.444;18.446;2023-08-06T07:13:28;2.80;;;2.80;;
17390;SDS011;8813;54.444;18.446;2023-08-06T07:15:55;2.70;;;2.60;;
17390;SDS011;8813;54.444;18.446;2023-08-06T07:18:22;2.53;;;2.53;;
17390;SDS011;8813;54.444;18.446;2023-08-06T07:20:49;2.58;;;2.58;;
17390;SDS011;8813;54.444;18.446;2023-08-06T07:23:18;8.48;;;3.40;;
17390;SDS011;8813;54.444;18.446;2023-08-06T07:25:45;2.55;;;2.55;;
17390;SDS011;8813;54.444;18.446;2023-08-06T07:28:12;3.13;;;3.03;;
17390;SDS011;8813;54.444;18.446;2023-08-06T07:30:39;2.90;;;2.90;;
17390;SDS011;8813;54.444;18.446;2023-08-06T07:33:07;2.95;;;2.95;;
17390;SDS011;8813;54.444;18.446;2023-08-06T07:35:34;2.80;;;2.80;;
17390;SDS011;8813;54.444;18.446;2023-08-06T07:38:01;2.70;;;2.70;;
17390;SDS011;8813;54.444;18.446;2023-08-06T07:40:29;2.90;;;2.90;;
17390;SDS011;8813;54.444;18.446;2023-08-06T07:42:56;2.70;;;2.70;;
17390;SDS011;8813;54.444;18.446;2023-08-06T07:45:23;2.80;;;2.80;;
17390;SDS011;8813;54.444;18.446;2023-08-06T07:47:52;2.80;;;2.80;;
17390;SDS011;8813;54.444;18.446;2023-08-06T07:50:19;2.50;;;2.50;;
17390;SDS011;8813;54.444;18.446;2023-08-06T07:52:46;2.65;;;2.65;;
17390;SDS011;8813;54.444;18.446;2023-08-06T07:55:13;2.67;;;2.67;;
17390;SDS011;8813;54.444;18.446;2023-08-06T07:57:42;2.60;;;2.60;;
17390;SDS011;8813;54.444;18.446;2023-08-06T08:00:09;2.50;;;2.50;;
17390;SDS011;8813;54.444;18.446;2023-08-06T08:02:37;2.55;;;2.55;;
17390;SDS011;8813;54.444;18.446;2023-08-06T08:05:04;3.47;;;3.20;;
17390;SDS011;8813;54.444;18.446;2023-08-06T08:07:32;2.40;;;2.40;;
17390;SDS011;8813;54.444;18.446;2023-08-06T08:09:59;2.47;;;2.47;;
17390;SDS011;8813;54.444;18.446;2023-08-06T08:12:26;2.50;;;2.50;;
17390;SDS011;8813;54.444;18.446;2023-08-06T08:14:54;2.90;;;2.80;;
17390;SDS011;8813;54.444;18.446;2023-08-06T08:17:21;2.60;;;2.60;;
17390;SDS011;8813;54.444;18.446;2023-08-06T08:19:48;2.60;;;2.60;;
17390;SDS011;8813;54.444;18.446;2023-08-06T08:22:15;2.65;;;2.65;;
17390;SDS011;8813;54.444;18.446;2023-08-06T08:24:42;2.90;;;2.70;;
17390;SDS011;8813;54.444;18.446;2023-08-06T08:27:09;2.50;;;2.50;;
17390;SDS011;8813;54.444;18.446;2023-08-06T08:29:36;2.50;;;2.50;;
17390;SDS011;8813;54.444;18.446;2023-08-06T08:32:04;2.50;;;2.50;;
17390;SDS011;8813;54.444;18.446;2023-08-06T08:34:31;2.30;;;2.30;;
17390;SDS011;8813;54.444;18.446;2023-08-06T08:36:58;2.50;;;2.50;;
17390;SDS011;8813;54.444;18.446;2023-08-06T08:39:25;3.92;;;3.72;;
17390;SDS011;8813;54.444;18.446;2023-08-06T08:41:52;2.20;;;2.20;;
17390;SDS011;8813;54.444;18.446;2023-08-06T08:44:19;2.42;;;2.42;;
17390;SDS011;8813;54.444;18.446;2023-08-06T08:46:46;2.40;;;2.40;;
17390;SDS011;8813;54.444;18.446;2023-08-06T08:49:15;2.85;;;2.85;;
17390;SDS011;8813;54.444;18.446;2023-08-06T08:51:43;3.38;;;3.28;;
17390;SDS011;8813;54.444;18.446;2023-08-06T08:54:11;2.83;;;2.83;;
17390;SDS011;8813;54.444;18.446;2023-08-06T08:56:40;2.80;;;2.80;;
17390;SDS011;8813;54.444;18.446;2023-08-06T08:59:06;2.90;;;2.90;;
17390;SDS011;8813;54.444;18.446;2023-08-06T09:01:33;2.75;;;2.75;;
17390;SDS011;8813;54.444;18.446;2023-08-06T09:04:01;2.40;;;2.40;;
17390;SDS011;8813;54.444;18.446;2023-08-06T09:06:30;2.33;;;2.33;;
17390;SDS011;8813;54.444;18.446;2023-08-06T09:09:01;2.50;;;2.50;;
17390;SDS011;8813;54.444;18.446;2023-08-06T09:11:31;5.45;;;2.85;;
17390;SDS011;8813;54.444;18.446;2023-08-06T09:14:04;2.83;;;2.72;;
17390;SDS011;8813;54.444;18.446;2023-08-06T09:16:34;2.40;;;2.40;;
17390;SDS011;8813;54.444;18.446;2023-08-06T09:19:06;2.97;;;2.95;;
17390;SDS011;8813;54.444;18.446;2023-08-06T09:21:37;2.58;;;2.58;;
17390;SDS011;8813;54.444;18.446;2023-08-06T09:24:07;3.05;;;3.05;;
17390;SDS011;8813;54.444;18.446;2023-08-06T09:26:36;2.85;;;2.85;;
17390;SDS011;8813;54.444;18.446;2023-08-06T09:29:04;2.90;;;2.90;;
17390;SDS011;8813;54.444;18.446;2023-08-06T09:31:32;2.70;;;2.70;;
17390;SDS011;8813;54.444;18.446;2023-08-06T09:34:00;3.17;;;3.08;;
17390;SDS011;8813;54.444;18.446;2023-08-06T09:36:27;2.65;;;2.65;;
17390;SDS011;8813;54.444;18.446;2023-08-06T09:38:56;2.42;;;2.42;;
17390;SDS011;8813;54.444;18.446;2023-08-06T09:41:26;2.28;;;2.28;;
17390;SDS011;8813;54.444;18.446;2023-08-06T09:43:54;2.50;;;2.50;;
17390;SDS011;8813;54.444;18.446;2023-08-06T09:46:21;3.25;;;3.15;;
17390;SDS011;8813;54.444;18.446;2023-08-06T09:48:48;2.20;;;2.20;;
17390;SDS011;8813;54.444;18.446;2023-08-06T09:51:16;3.50;;;3.30;;
17390;SDS011;8813;54.444;18.446;2023-08-06T09:53:43;2.25;;;2.25;;
17390;SDS011;8813;54.444;18.446;2023-08-06T09:56:12;2.42;;;2.42;;
17390;SDS011;8813;54.444;18.446;2023-08-06T09:58:40;2.65;;;2.63;;
17390;SDS011;8813;54.444;18.446;2023-08-06T10:01:08;2.80;;;2.70;;
17390;SDS011;8813;54.444;18.446;2023-08-06T10:03:35;2.58;;;2.55;;
17390;SDS011;8813;54.444;18.446;2023-08-06T10:06:03;3.00;;;2.90;;
17390;SDS011;8813;54.444;18.446;2023-08-06T10:08:32;2.55;;;2.55;;
17390;SDS011;8813;54.444;18.446;2023-08-06T10:10:59;2.60;;;2.60;;
17390;SDS011;8813;54.444;18.446;2023-08-06T10:13:30;2.50;;;2.50;;
17390;SDS011;8813;54.444;18.446;2023-08-06T10:15:59;2.38;;;2.38;;
17390;SDS011;8813;54.444;18.446;2023-08-06T10:18:26;2.40;;;2.40;;
17390;SDS011;8813;54.444;18.446;2023-08-06T10:20:54;2.85;;;2.75;;
17390;SDS011;8813;54.444;18.446;2023-08-06T10:23:21;2.38;;;2.38;;
17390;SDS011;8813;54.444;18.446;2023-08-06T10:26:01;2.20;;;2.20;;
17390;SDS011;8813;54.444;18.446;2023-08-06T10:28:35;2.40;;;2.40;;
17390;SDS011;8813;54.444;18.446;2023-08-06T10:31:02;2.53;;;2.53;;
17390;SDS011;8813;54.444;18.446;2023-08-06T10:33:40;2.92;;;2.85;;
17390;SDS011;8813;54.444;18.446;2023-08-06T10:36:10;2.50;;;2.50;;
17390;SDS011;8813;54.444;18.446;2023-08-06T10:38:44;2.50;;;2.50;;
17390;SDS011;8813;54.444;18.446;2023-08-06T10:41:15;2.50;;;2.50;;
17390;SDS011;8813;54.444;18.446;2023-08-06T10:43:43;2.83;;;2.83;;
17390;SDS011;8813;54.444;18.446;2023-08-06T10:46:11;2.30;;;2.30;;
17390;SDS011;8813;54.444;18.446;2023-08-06T10:48:39;2.40;;;2.40;;
17390;SDS011;8813;54.444;18.446;2023-08-06T10:51:07;3.42;;;3.33;;
17390;SDS011;8813;54.444;18.446;2023-08-06T10:53:35;2.40;;;2.40;;
17390;SDS011;8813;54.444;18.446;2023-08-06T10:56:02;2.50;;;2.50;;
17390;SDS011;8813;54.444;18.446;2023-08-06T10:58:38;2.40;;;2.40;;
17390;SDS011;8813;54.444;18.446;2023-08-06T11:01:07;2.83;;;2.83;;
17390;SDS011;8813;54.444;18.446;2023-08-06T11:03:34;2.20;;;2.20;;
17390;SDS011;8813;54.444;18.446;2023-08-06T11:06:01;2.40;;;2.40;;
17390;SDS011;8813;54.444;18.446;2023-08-06T11:08:28;2.30;;;2.30;;
17390;SDS011;8813;54.444;18.446;2023-08-06T11:11:07;2.30;;;2.30;;
17390;SDS011;8813;54.444;18.446;2023-08-06T11:13:34;2.20;;;2.20;;
17390;SDS011;8813;54.444;18.446;2023-08-06T11:16:01;2.10;;;2.10;;
17390;SDS011;8813;54.444;18.446;2023-08-06T11:18:32;2.10;;;2.10;;
17390;SDS011;8813;54.444;18.446;2023-08-06T11:20:59;2.00;;;2.00;;
17390;SDS011;8813;54.444;18.446;2023-08-06T11:23:27;1.80;;;1.80;;
17390;SDS011;8813;54.444;18.446;2023-08-06T11:25:55;2.25;;;2.25;;
17390;SDS011;8813;54.444;18.446;2023-08-06T11:28:22;2.03;;;2.03;;
17390;SDS011;8813;54.444;18.446;2023-08-06T11:30:49;1.80;;;1.80;;
17390;SDS011;8813;54.444;18.446;2023-08-06T11:33:19;1.80;;;1.80;;
17390;SDS011;8813;54.444;18.446;2023-08-06T11:35:49;2.25;;;2.25;;
17390;SDS011;8813;54.444;18.446;2023-08-06T11:38:16;1.77;;;1.77;;
17390;SDS011;8813;54.444;18.446;2023-08-06T11:40:43;1.83;;;1.83;;
17390;SDS011;8813;54.444;18.446;2023-08-06T11:43:10;1.80;;;1.80;;
17390;SDS011;8813;54.444;18.446;2023-08-06T11:45:39;2.00;;;2.00;;
17390;SDS011;8813;54.444;18.446;2023-08-06T11:48:06;1.92;;;1.92;;
17390;SDS011;8813;54.444;18.446;2023-08-06T11:50:36;1.80;;;1.80;;
17390;SDS011;8813;54.444;18.446;2023-08-06T11:53:05;1.65;;;1.65;;
17390;SDS011;8813;54.444;18.446;2023-08-06T11:55:32;1.70;;;1.70;;
17390;SDS011;8813;54.444;18.446;2023-08-06T11:58:03;1.77;;;1.77;;
17390;SDS011;8813;54.444;18.446;2023-08-06T12:00:31;1.70;;;1.70;;
17390;SDS011;8813;54.444;18.446;2023-08-06T12:02:58;1.60;;;1.60;;
17390;SDS011;8813;54.444;18.446;2023-08-06T12:05:29;1.88;;;1.88;;
17390;SDS011;8813;54.444;18.446;2023-08-06T12:07:57;1.70;;;1.70;;
17390;SDS011;8813;54.444;18.446;2023-08-06T12:10:26;1.50;;;1.50;;
17390;SDS011;8813;54.444;18.446;2023-08-06T12:12:54;1.75;;;1.75;;
17390;SDS011;8813;54.444;18.446;2023-08-06T12:15:21;1.50;;;1.50;;
17390;SDS011;8813;54.444;18.446;2023-08-06T12:17:48;1.58;;;1.58;;
17390;SDS011;8813;54.444;18.446;2023-08-06T12:20:16;1.50;;;1.50;;
17390;SDS011;8813;54.444;18.446;2023-08-06T12:22:43;1.30;;;1.30;;
17390;SDS011;8813;54.444;18.446;2023-08-06T12:25:11;1.20;;;1.20;;
17390;SDS011;8813;54.444;18.446;2023-08-06T12:27:40;1.20;;;1.20;;
17390;SDS011;8813;54.444;18.446;2023-08-06T12:30:09;1.25;;;1.25;;
17390;SDS011;8813;54.444;18.446;2023-08-06T12:32:37;2.28;;;2.28;;
17390;SDS011;8813;54.444;18.446;2023-08-06T12:35:04;1.30;;;1.30;;
17390;SDS011;8813;54.444;18.446;2023-08-06T12:37:33;1.30;;;1.30;;
17390;SDS011;8813;54.444;18.446;2023-08-06T12:40:00;1.30;;;1.30;;
17390;SDS011;8813;54.444;18.446;2023-08-06T12:42:27;1.33;;;1.33;;
17390;SDS011;8813;54.444;18.446;2023-08-06T12:44:55;1.20;;;1.20;;
17390;SDS011;8813;54.444;18.446;2023-08-06T12:47:22;1.50;;;1.50;;
17390;SDS011;8813;54.444;18.446;2023-08-06T12:49:49;1.73;;;1.73;;
17390;SDS011;8813;54.444;18.446;2023-08-06T12:52:16;9.38;;;2.17;;
17390;SDS011;8813;54.444;18.446;2023-08-06T12:54:45;1.30;;;1.30;;
17390;SDS011;8813;54.444;18.446;2023-08-06T12:57:11;1.15;;;1.15;;
17390;SDS011;8813;54.444;18.446;2023-08-06T12:59:39;1.30;;;1.30;;
17390;SDS011;8813;54.444;18.446;2023-08-06T13:02:07;1.30;;;1.30;;
17390;SDS011;8813;54.444;18.446;2023-08-06T13:04:34;1.92;;;1.92;;
17390;SDS011;8813;54.444;18.446;2023-08-06T13:07:01;1.52;;;1.52;;
17390;SDS011;8813;54.444;18.446;2023-08-06T13:09:28;1.20;;;1.20;;
17390;SDS011;8813;54.444;18.446;2023-08-06T13:11:55;1.17;;;1.17;;
17390;SDS011;8813;54.444;18.446;2023-08-06T13:14:23;1.25;;;1.25;;
17390;SDS011;8813;54.444;18.446;2023-08-06T13:16:50;1.20;;;1.20;;
17390;SDS011;8813;54.444;18.446;2023-08-06T13:19:18;1.20;;;1.20;;
17390;SDS011;8813;54.444;18.446;2023-08-06T13:21:58;1.00;;;1.00;;
17390;SDS011;8813;54.444;18.446;2023-08-06T13:24:28;1.00;;;1.00;;
17390;SDS011;8813;54.444;18.446;2023-08-06T13:26:55;1.15;;;1.15;;
17390;SDS011;8813;54.444;18.446;2023-08-06T13:29:22;1.05;;;1.05;;
17390;SDS011;8813;54.444;18.446;2023-08-06T13:31:49;1.42;;;1.42;;
17390;SDS011;8813;54.444;18.446;2023-08-06T13:34:17;1.00;;;1.00;;
17390;SDS011;8813;54.444;18.446;2023-08-06T13:36:44;1.20;;;1.20;;
17390;SDS011;8813;54.444;18.446;2023-08-06T13:39:11;1.00;;;1.00;;
17390;SDS011;8813;54.444;18.446;2023-08-06T13:41:41;1.20;;;1.20;;
17390;SDS011;8813;54.444;18.446;2023-08-06T13:44:08;1.10;;;1.10;;
17390;SDS011;8813;54.444;18.446;2023-08-06T13:46:35;1.30;;;1.30;;
17390;SDS011;8813;54.444;18.446;2023-08-06T13:49:02;1.00;;;1.00;;
17390;SDS011;8813;54.444;18.446;2023-08-06T13:51:31;1.13;;;1.13;;
17390;SDS011;8813;54.444;18.446;2023-08-06T13:53:59;0.98;;;0.98;;
17390;SDS011;8813;54.444;18.446;2023-08-06T13:56:26;2.13;;;2.13;;
17390;SDS011;8813;54.444;18.446;2023-08-06T13:58:54;1.10;;;1.10;;
17390;SDS011;8813;54.444;18.446;2023-08-06T14:01:21;1.52;;;1.52;;
17390;SDS011;8813;54.444;18.446;2023-08-06T14:03:48;1.30;;;1.30;;
17390;SDS011;8813;54.444;18.446;2023-08-06T14:06:15;1.27;;;1.27;;
17390;SDS011;8813;54.444;18.446;2023-08-06T14:08:44;1.15;;;1.15;;
17390;SDS011;8813;54.444;18.446;2023-08-06T14:11:11;1.08;;;1.08;;
17390;SDS011;8813;54.444;18.446;2023-08-06T14:13:38;1.00;;;1.00;;
17390;SDS011;8813;54.444;18.446;2023-08-06T14:16:05;1.05;;;1.05;;
17390;SDS011;8813;54.444;18.446;2023-08-06T14:18:33;1.13;;;1.13;;
17390;SDS011;8813;54.444;18.446;2023-08-06T14:21:03;1.33;;;1.33;;
17390;SDS011;8813;54.444;18.446;2023-08-06T14:23:29;1.08;;;1.08;;
17390;SDS011;8813;54.444;18.446;2023-08-06T14:25:58;1.08;;;1.08;;
17390;SDS011;8813;54.444;18.446;2023-08-06T14:28:25;1.00;;;1.00;;
17390;SDS011;8813;54.444;18.446;2023-08-06T14:30:52;2.40;;;2.10;;
17390;SDS011;8813;54.444;18.446;2023-08-06T14:33:19;1.08;;;1.08;;
17390;SDS011;8813;54.444;18.446;2023-08-06T14:35:46;1.00;;;1.00;;
17390;SDS011;8813;54.444;18.446;2023-08-06T14:38:13;1.00;;;1.00;;
17390;SDS011;8813;54.444;18.446;2023-08-06T14:40:40;1.20;;;1.20;;
17390;SDS011;8813;54.444;18.446;2023-08-06T14:43:09;1.20;;;1.20;;
17390;SDS011;8813;54.444;18.446;2023-08-06T14:45:37;1.73;;;1.73;;
17390;SDS011;8813;54.444;18.446;2023-08-06T14:48:04;1.13;;;1.13;;
17390;SDS011;8813;54.444;18.446;2023-08-06T14:50:31;1.08;;;1.08;;